createdAt,value
2018-02-17T00:00:50.499Z,14.37
2018-02-17T00:03:16.485Z,10.43
2018-02-17T00:05:42.438Z,10.30
2018-02-17T00:08:08.444Z,5.20
2018-02-17T00:10:35.252Z,12.43
2018-02-17T00:13:01.341Z,10.07
2018-02-17T00:15:27.374Z,8.77
2018-02-17T00:17:54.536Z,5.90
2018-02-17T00:20:20.544Z,9.30
2018-02-17T00:22:47.363Z,27.90
2018-02-17T00:25:13.390Z,14.93
2018-02-17T00:27:39.359Z,14.40
2018-02-17T00:30:05.351Z,6.67
2018-02-17T00:32:31.322Z,9.53
2018-02-17T00:34:57.338Z,13.23
2018-02-17T00:37:23.353Z,11.00
2018-02-17T00:39:50.080Z,11.60
2018-02-17T00:42:16.048Z,12.60
2018-02-17T00:44:42.772Z,10.73
2018-02-17T00:47:08.782Z,10.40
2018-02-17T00:49:34.729Z,12.10
2018-02-17T00:52:00.778Z,8.67
2018-02-17T00:54:26.792Z,12.80
2018-02-17T00:56:53.508Z,7.73
2018-02-17T00:59:19.499Z,14.27
2018-02-17T01:01:45.484Z,8.23
2018-02-17T01:04:11.439Z,8.20
2018-02-17T01:06:38.162Z,8.50
2018-02-17T01:09:04.117Z,15.33
2018-02-17T01:11:30.110Z,8.73
2018-02-17T01:13:56.138Z,13.43
2018-02-17T01:16:22.144Z,10.13
2018-02-17T01:18:48.860Z,9.83
2018-02-17T01:21:14.841Z,8.57
2018-02-17T01:23:41.556Z,14.93
2018-02-17T01:26:07.575Z,12.27
2018-02-17T01:28:33.525Z,8.33
2018-02-17T01:30:59.501Z,12.03
2018-02-17T01:33:26.257Z,12.33
2018-02-17T01:35:53.031Z,21.90
2018-02-17T01:38:18.993Z,9.83
2018-02-17T01:40:44.969Z,8.67
2018-02-17T01:43:10.956Z,9.13
2018-02-17T01:45:36.957Z,9.07
2018-02-17T01:48:03.664Z,8.10
2018-02-17T01:50:31.456Z,13.27
2018-02-17T01:52:57.574Z,17.27
2018-02-17T01:55:23.576Z,13.27
2018-02-17T01:57:49.564Z,14.90
2018-02-17T02:00:15.532Z,16.43
2018-02-17T02:02:42.247Z,12.80
2018-02-17T02:05:08.226Z,14.27
2018-02-17T02:07:34.976Z,13.77
2018-02-17T02:10:01.683Z,13.93
2018-02-17T02:12:27.682Z,9.13
2018-02-17T02:14:53.661Z,9.10
2018-02-17T02:17:19.619Z,10.07
2018-02-17T02:19:45.573Z,15.30
2018-02-17T02:22:12.292Z,12.67
2018-02-17T02:24:38.247Z,16.40
2018-02-17T02:27:04.948Z,15.80
2018-02-17T02:29:30.916Z,13.23
2018-02-17T02:31:56.916Z,17.70
2018-02-17T02:34:22.937Z,11.70
2018-02-17T02:36:49.211Z,15.60
2018-02-17T02:39:15.168Z,20.73
2018-02-17T02:41:41.137Z,17.33
2018-02-17T02:44:07.865Z,17.20
2018-02-17T02:46:33.822Z,22.23
2018-02-17T02:49:00.532Z,20.43
2018-02-17T02:51:26.570Z,20.23
2018-02-17T02:53:52.565Z,18.40
2018-02-17T02:56:25.767Z,15.10
2018-02-17T02:58:51.756Z,15.83
2018-02-17T03:01:17.703Z,16.87
2018-02-17T03:03:43.671Z,14.03
2018-02-17T03:06:09.628Z,11.37
2018-02-17T03:08:35.582Z,15.33
2018-02-17T03:11:01.578Z,18.37
2018-02-17T03:13:28.103Z,14.47
2018-02-17T03:15:54.857Z,18.87
2018-02-17T03:18:21.562Z,15.17
2018-02-17T03:20:47.546Z,26.80
2018-02-17T03:23:14.240Z,10.27
2018-02-17T03:25:40.206Z,13.67
2018-02-17T03:28:06.185Z,12.90
2018-02-17T03:30:32.182Z,14.27
2018-02-17T03:32:58.261Z,21.87
2018-02-17T03:35:24.246Z,14.23
2018-02-17T03:37:50.237Z,24.47
2018-02-17T03:40:16.196Z,21.13
2018-02-17T03:42:42.161Z,15.43
2018-02-17T03:45:08.857Z,18.40
2018-02-17T03:47:34.824Z,16.10
2018-02-17T03:50:00.797Z,17.03
2018-02-17T03:52:26.829Z,18.40
2018-02-17T03:54:52.815Z,17.40
2018-02-17T03:57:18.801Z,16.13
2018-02-17T03:59:44.753Z,18.33
2018-02-17T04:02:11.467Z,15.00
2018-02-17T04:04:37.420Z,15.03
2018-02-17T04:07:03.402Z,16.30
2018-02-17T04:09:29.354Z,12.10
2018-02-17T04:11:55.326Z,14.77
2018-02-17T04:14:21.264Z,14.93
2018-02-17T04:16:47.271Z,16.30
2018-02-17T04:19:13.227Z,13.77
2018-02-17T04:21:39.208Z,19.33
2018-02-17T04:24:05.158Z,16.50
2018-02-17T04:26:31.136Z,21.83
2018-02-17T04:28:57.116Z,20.03
2018-02-17T04:31:23.103Z,16.67
2018-02-17T04:33:49.068Z,17.90
2018-02-17T04:36:15.027Z,18.00
2018-02-17T04:38:41.009Z,15.63
2018-02-17T04:41:10.036Z,19.37
2018-02-17T04:43:42.164Z,15.33
2018-02-17T04:46:23.124Z,15.60
2018-02-17T04:48:50.925Z,20.07
2018-02-17T04:54:36.974Z,24.03
2018-02-17T04:57:12.920Z,17.37
2018-02-17T04:59:44.913Z,14.80
2018-02-17T05:05:16.688Z,11.47
2018-02-17T05:07:47.587Z,12.43
2018-02-17T05:10:13.573Z,10.07
2018-02-17T05:12:39.541Z,15.07
2018-02-17T05:18:11.729Z,14.50
2018-02-17T05:20:40.650Z,14.43
2018-02-17T05:23:11.407Z,10.27
2018-02-17T05:28:44.764Z,16.23
2018-02-17T05:31:11.582Z,11.90
2018-02-17T05:33:41.366Z,11.30
2018-02-17T05:39:08.731Z,11.07
2018-02-17T05:41:40.716Z,15.60
2018-02-17T05:44:11.643Z,12.10
2018-02-17T05:46:40.304Z,18.27
2018-02-17T05:49:09.232Z,15.07
2018-02-17T05:51:35.194Z,13.93
2018-02-17T05:54:01.896Z,13.10
2018-02-17T05:56:27.910Z,16.73
2018-02-17T05:58:53.916Z,11.00
2018-02-17T06:01:19.894Z,12.60
2018-02-17T06:03:45.865Z,14.97
2018-02-17T06:06:11.823Z,12.63
2018-02-17T06:08:37.779Z,9.33
2018-02-17T06:11:03.776Z,12.67
2018-02-17T06:13:30.476Z,16.03
2018-02-17T06:15:56.465Z,17.27
2018-02-17T06:18:23.212Z,12.37
2018-02-17T06:20:49.948Z,12.40
2018-02-17T06:23:15.891Z,14.17
2018-02-17T06:25:41.862Z,11.67
2018-02-17T06:28:07.823Z,14.07
2018-02-17T06:30:33.790Z,15.23
2018-02-17T06:32:59.758Z,10.87
2018-02-17T06:35:26.463Z,9.70
2018-02-17T06:37:52.452Z,8.47
2018-02-17T06:40:18.409Z,16.10
2018-02-17T06:42:44.388Z,10.10
2018-02-17T06:45:11.092Z,16.27
2018-02-17T06:47:37.063Z,9.57
2018-02-17T06:50:03.776Z,17.50
2018-02-17T06:52:29.783Z,15.43
2018-02-17T06:54:55.767Z,12.43
2018-02-17T06:57:22.569Z,13.03
2018-02-17T06:59:48.546Z,14.77
2018-02-17T07:02:14.524Z,16.30
2018-02-17T07:04:40.480Z,10.47
2018-02-17T07:07:06.469Z,11.90
2018-02-17T07:09:32.466Z,18.57
2018-02-17T07:11:58.483Z,8.43
2018-02-17T07:14:24.479Z,14.17
2018-02-17T07:16:51.174Z,21.47
2018-02-17T07:19:17.173Z,14.00
2018-02-17T07:21:43.929Z,17.97
2018-02-17T07:24:09.925Z,11.03
2018-02-17T07:26:35.886Z,11.00
2018-02-17T07:29:02.631Z,12.00
2018-02-17T07:31:28.642Z,13.00
2018-02-17T07:33:54.671Z,17.50
2018-02-17T07:36:20.641Z,14.90
2018-02-17T07:38:47.356Z,13.67
2018-02-17T07:41:13.356Z,10.90
2018-02-17T07:43:39.322Z,7.70
2018-02-17T07:46:05.312Z,10.03
2018-02-17T07:48:32.041Z,13.23
2018-02-17T07:50:59.572Z,14.17
2018-02-17T07:53:25.626Z,14.93
2018-02-17T07:55:51.626Z,13.47
2018-02-17T07:58:17.602Z,12.40
2018-02-17T08:00:43.573Z,15.87
2018-02-17T08:03:10.303Z,7.73
2018-02-17T08:05:37.023Z,13.47
2018-02-17T08:08:03.070Z,15.33
2018-02-17T08:10:29.110Z,11.80
2018-02-17T08:12:55.129Z,10.93
2018-02-17T08:15:21.098Z,10.73
2018-02-17T08:17:47.097Z,12.87
2018-02-17T08:20:13.097Z,15.00
2018-02-17T08:22:39.831Z,11.83
2018-02-17T08:25:05.836Z,11.57
2018-02-17T08:27:31.933Z,11.83
2018-02-17T08:29:58.751Z,17.00
2018-02-17T08:32:24.784Z,12.67
2018-02-17T08:34:50.766Z,12.17
2018-02-17T08:37:16.765Z,13.00
2018-02-17T08:39:42.773Z,13.67
2018-02-17T08:42:08.722Z,14.33
2018-02-17T08:44:34.691Z,15.37
2018-02-17T08:47:01.505Z,15.70
2018-02-17T08:49:27.549Z,11.07
2018-02-17T08:51:53.542Z,7.50
2018-02-17T08:54:19.529Z,11.03
2018-02-17T08:56:45.480Z,16.00
2018-02-17T08:59:11.489Z,12.93
2018-02-17T09:01:37.464Z,10.83
2018-02-17T09:04:04.204Z,13.47
2018-02-17T09:06:30.927Z,11.77
2018-02-17T09:08:56.939Z,11.80
2018-02-17T09:11:23.047Z,14.80
2018-02-17T09:13:49.048Z,12.07
2018-02-17T09:16:16.535Z,15.37
2018-02-17T09:18:43.300Z,10.53
2018-02-17T09:21:10.052Z,11.70
2018-02-17T09:23:36.767Z,12.17
2018-02-17T09:26:02.744Z,13.67
2018-02-17T09:28:29.578Z,9.80
2018-02-17T09:30:55.683Z,12.23
2018-02-17T09:33:21.661Z,13.63
2018-02-17T09:35:48.438Z,11.33
2018-02-17T09:38:14.414Z,15.40
2018-02-17T09:40:40.401Z,12.27
2018-02-17T09:43:07.114Z,13.03
2018-02-17T09:45:33.107Z,13.70
2018-02-17T09:47:59.116Z,12.87
2018-02-17T09:50:25.847Z,12.27
2018-02-17T09:52:51.915Z,10.80
2018-02-17T09:55:18.640Z,14.13
2018-02-17T09:57:44.749Z,14.30
2018-02-17T10:00:10.727Z,11.40
2018-02-17T10:02:36.749Z,11.90
2018-02-17T10:05:02.746Z,8.33
2018-02-17T10:07:28.723Z,14.67
2018-02-17T10:09:55.480Z,11.60
2018-02-17T10:12:21.463Z,12.43
2018-02-17T10:14:47.439Z,10.97
2018-02-17T10:17:13.429Z,16.27
2018-02-17T10:19:39.417Z,10.23
2018-02-17T10:22:05.421Z,13.17
2018-02-17T10:24:31.485Z,12.83
2018-02-17T10:26:57.528Z,10.70
2018-02-17T10:29:23.659Z,10.90
2018-02-17T10:31:49.657Z,13.90
2018-02-17T10:34:15.627Z,12.63
2018-02-17T10:36:41.580Z,14.03
2018-02-17T10:39:07.570Z,12.50
2018-02-17T10:41:33.576Z,13.00
2018-02-17T10:44:00.349Z,11.97
2018-02-17T10:46:26.344Z,13.40
2018-02-17T10:48:53.094Z,10.60
2018-02-17T10:51:19.094Z,12.67
2018-02-17T10:53:45.084Z,12.57
2018-02-17T10:56:11.044Z,11.10
2018-02-17T10:58:37.015Z,13.13
2018-02-17T11:01:02.981Z,15.53
2018-02-17T11:03:28.964Z,14.50
2018-02-17T11:05:55.692Z,17.47
2018-02-17T11:08:21.795Z,13.77
2018-02-17T11:10:48.476Z,13.33
2018-02-17T11:13:15.370Z,13.37
2018-02-17T11:15:41.351Z,9.20
2018-02-17T11:18:07.343Z,19.70
2018-02-17T11:20:34.083Z,10.13
2018-02-17T11:23:00.817Z,13.97
2018-02-17T11:25:26.810Z,9.70
2018-02-17T11:27:52.784Z,13.70
2018-02-17T11:30:18.824Z,12.03
2018-02-17T11:32:44.882Z,12.73
2018-02-17T11:35:11.614Z,15.63
2018-02-17T11:37:37.656Z,15.30
2018-02-17T11:40:03.667Z,12.27
2018-02-17T11:42:29.637Z,11.90
2018-02-17T11:44:56.422Z,12.17
2018-02-17T11:47:23.126Z,15.90
2018-02-17T11:49:49.136Z,14.93
2018-02-17T11:52:15.176Z,10.40
2018-02-17T11:54:41.139Z,13.67
2018-02-17T11:57:07.115Z,16.53
2018-02-17T11:59:33.159Z,15.37
2018-02-17T12:01:59.077Z,10.63
2018-02-17T12:04:25.844Z,16.97
2018-02-17T12:06:51.836Z,9.80
2018-02-17T12:09:18.621Z,15.27
2018-02-17T12:11:45.400Z,17.37
2018-02-17T12:14:11.398Z,14.17
2018-02-17T12:16:38.152Z,9.33
2018-02-17T12:19:04.879Z,12.30
2018-02-17T12:21:30.869Z,17.83
2018-02-17T12:23:56.845Z,13.03
2018-02-17T12:26:22.868Z,9.40
2018-02-17T12:28:48.891Z,10.73
2018-02-17T12:31:14.921Z,12.97
2018-02-17T12:33:40.982Z,17.03
2018-02-17T12:36:06.965Z,12.97
2018-02-17T12:38:32.968Z,11.47
2018-02-17T12:40:58.968Z,11.33
2018-02-17T12:43:24.976Z,12.77
2018-02-17T12:45:51.735Z,10.03
2018-02-17T12:48:18.512Z,14.87
2018-02-17T12:50:44.551Z,9.67
2018-02-17T12:53:10.558Z,10.03
2018-02-17T12:55:36.544Z,26.30
2018-02-17T12:58:02.588Z,12.90
2018-02-17T13:00:28.582Z,9.67
2018-02-17T13:02:54.554Z,9.67
2018-02-17T13:05:20.614Z,11.67
2018-02-17T13:07:47.417Z,12.47
2018-02-17T13:10:13.464Z,12.77
2018-02-17T13:12:39.486Z,8.67
2018-02-17T13:15:05.475Z,8.80
2018-02-17T13:17:31.475Z,14.00
2018-02-17T13:19:57.522Z,9.93
2018-02-17T13:22:23.497Z,10.93
2018-02-17T13:24:50.284Z,9.00
2018-02-17T13:27:16.328Z,9.90
2018-02-17T13:29:42.389Z,8.87
2018-02-17T13:32:08.399Z,13.77
2018-02-17T13:34:34.382Z,9.40
2018-02-17T13:37:00.360Z,11.50
2018-02-17T13:39:26.352Z,9.83
2018-02-17T13:41:52.406Z,10.27
2018-02-17T13:44:19.159Z,8.30
2018-02-17T13:46:45.935Z,6.80
2018-02-17T13:49:11.962Z,10.53
2018-02-17T13:51:37.942Z,15.00
2018-02-17T13:54:03.951Z,8.70
2018-02-17T13:56:29.937Z,7.90
2018-02-17T13:58:55.916Z,10.00
2018-02-17T14:01:21.998Z,11.37
2018-02-17T14:03:48.008Z,10.37
2018-02-17T14:06:14.040Z,12.40
2018-02-17T14:08:40.040Z,6.13
2018-02-17T14:11:06.763Z,5.50
2018-02-17T14:13:32.789Z,6.03
2018-02-17T14:15:58.752Z,8.40
2018-02-17T14:18:25.497Z,15.70
2018-02-17T14:20:51.489Z,18.27
2018-02-17T14:23:17.557Z,6.80
2018-02-17T14:25:45.081Z,9.30
2018-02-17T14:28:11.092Z,7.10
2018-02-17T14:30:37.827Z,9.20
2018-02-17T14:33:03.832Z,9.80
2018-02-17T14:35:29.857Z,8.00
2018-02-17T14:37:55.830Z,10.13
2018-02-17T14:40:22.073Z,8.40
2018-02-17T14:42:48.871Z,13.00
2018-02-17T14:45:14.895Z,12.13
2018-02-17T14:47:41.686Z,12.40
2018-02-17T14:50:07.682Z,10.23
2018-02-17T14:52:34.472Z,16.53
2018-02-17T14:55:00.516Z,15.70
2018-02-17T14:57:26.558Z,12.93
2018-02-17T14:59:52.593Z,11.17
2018-02-17T15:02:18.646Z,11.37
2018-02-17T15:04:44.830Z,12.73
2018-02-17T15:07:10.804Z,13.27
2018-02-17T15:09:36.791Z,10.40
2018-02-17T15:12:03.559Z,13.33
2018-02-17T15:14:30.321Z,8.23
2018-02-17T15:16:56.319Z,11.77
2018-02-17T15:19:22.401Z,12.20
2018-02-17T15:21:48.453Z,9.73
2018-02-17T15:24:14.579Z,7.50
2018-02-17T15:26:40.629Z,9.87
2018-02-17T15:29:06.664Z,8.47
2018-02-17T15:31:32.667Z,13.10
2018-02-17T15:33:59.431Z,9.00
2018-02-17T15:36:25.410Z,9.60
2018-02-17T15:38:51.396Z,10.93
2018-02-17T15:41:17.407Z,7.30
2018-02-17T15:43:44.400Z,11.17
2018-02-17T15:46:10.373Z,11.37
2018-02-17T15:48:36.380Z,11.33
2018-02-17T15:51:02.355Z,15.00
2018-02-17T15:53:28.352Z,6.47
2018-02-17T15:55:54.333Z,13.37
2018-02-17T15:58:20.306Z,12.27
2018-02-17T16:00:46.359Z,13.53
2018-02-17T16:03:12.355Z,12.73
2018-02-17T16:05:38.337Z,15.50
2018-02-17T16:08:04.325Z,13.17
2018-02-17T16:10:31.097Z,12.00
2018-02-17T16:12:57.902Z,13.77
2018-02-17T16:15:23.878Z,15.17
2018-02-17T16:17:49.899Z,13.90
2018-02-17T16:20:16.656Z,14.53
2018-02-17T16:22:42.976Z,21.93
2018-02-17T16:25:09.050Z,11.23
2018-02-17T16:27:35.024Z,13.50
2018-02-17T16:30:01.032Z,12.63
2018-02-17T16:32:27.021Z,10.43
2018-02-17T16:34:53.021Z,16.17
2018-02-17T16:37:19.073Z,12.40
2018-02-17T16:39:45.128Z,18.23
2018-02-17T16:42:11.117Z,11.33
2018-02-17T16:44:37.110Z,12.30
2018-02-17T16:47:03.090Z,16.20
2018-02-17T16:49:29.104Z,12.07
2018-02-17T16:51:55.091Z,18.67
2018-02-17T16:54:21.117Z,14.27
2018-02-17T16:56:47.109Z,15.03
2018-02-17T16:59:13.974Z,13.43
2018-02-17T17:01:39.959Z,16.70
2018-02-17T17:04:05.990Z,12.67
2018-02-17T17:06:31.998Z,13.03
2018-02-17T17:08:58.040Z,16.13
2018-02-17T17:11:24.039Z,16.70
2018-02-17T17:13:50.846Z,12.67
2018-02-17T17:16:16.856Z,16.40
2018-02-17T17:18:43.163Z,15.10
2018-02-17T17:21:09.160Z,14.57
2018-02-17T17:23:35.180Z,13.07
2018-02-17T17:26:01.211Z,12.20
2018-02-17T17:28:27.186Z,14.63
2018-02-17T17:30:53.175Z,16.67
2018-02-17T17:33:19.949Z,17.63
2018-02-17T17:35:46.034Z,14.07
2018-02-17T17:38:13.590Z,15.23
2018-02-17T17:40:39.607Z,16.63
2018-02-17T17:43:05.595Z,17.17
2018-02-17T17:45:32.339Z,13.83
2018-02-17T17:47:58.333Z,20.27
2018-02-17T17:50:24.349Z,13.60
2018-02-17T17:52:50.372Z,15.00
2018-02-17T17:55:17.333Z,10.97
2018-02-17T17:57:43.445Z,13.23
2018-02-17T18:00:09.490Z,16.87
2018-02-17T18:02:36.223Z,13.20
2018-02-17T18:05:02.262Z,17.40
2018-02-17T18:07:29.007Z,15.23
2018-02-17T18:09:54.980Z,16.63
2018-02-17T18:12:21.729Z,11.27
2018-02-17T18:14:48.485Z,23.10
2018-02-17T18:17:15.228Z,11.97
2018-02-17T18:19:41.994Z,13.93
2018-02-17T18:22:08.684Z,13.77
2018-02-17T18:24:34.659Z,13.37
2018-02-17T18:27:00.683Z,20.67
2018-02-17T18:29:26.684Z,20.00
2018-02-17T18:31:52.741Z,21.33
2018-02-17T18:34:18.800Z,14.47
2018-02-17T18:36:44.821Z,16.10
2018-02-17T18:39:10.793Z,13.60
2018-02-17T18:41:37.534Z,18.33
2018-02-17T18:44:03.505Z,17.17
2018-02-17T18:46:29.519Z,17.47
2018-02-17T18:48:56.231Z,20.30
2018-02-17T18:51:22.236Z,18.43
2018-02-17T18:53:48.286Z,16.63
2018-02-17T18:56:14.430Z,23.07
2018-02-17T18:58:40.416Z,11.37
2018-02-17T19:01:07.171Z,15.27
2018-02-17T19:03:33.924Z,14.87
2018-02-17T19:06:00.642Z,17.07
2018-02-17T19:08:26.628Z,17.63
2018-02-17T19:10:52.618Z,21.83
2018-02-17T19:13:18.747Z,30.77
2018-02-17T19:15:44.854Z,30.23
2018-02-17T19:18:10.833Z,28.20
2018-02-17T19:20:36.818Z,23.47
2018-02-17T19:23:02.783Z,23.43
2018-02-17T19:25:28.782Z,26.40
2018-02-17T19:27:54.782Z,23.67
2018-02-17T19:30:20.887Z,21.10
2018-02-17T19:32:46.927Z,22.90
2018-02-17T19:35:13.022Z,20.47
2018-02-17T19:37:38.987Z,26.90
2018-02-17T19:40:04.971Z,17.97
2018-02-17T19:42:30.953Z,19.87
2018-02-17T19:44:56.919Z,21.40
2018-02-17T19:47:22.887Z,20.80
2018-02-17T19:49:48.864Z,24.67
2018-02-17T19:52:14.817Z,19.20
2018-02-17T19:54:41.630Z,19.30
2018-02-17T19:57:07.583Z,22.53
2018-02-17T19:59:33.605Z,20.10
2018-02-17T20:01:59.557Z,22.33
2018-02-17T20:04:25.541Z,16.47
2018-02-17T20:06:51.523Z,22.07
2018-02-17T20:09:17.540Z,23.80
2018-02-17T20:11:43.642Z,23.30
2018-02-17T20:14:09.621Z,19.93
2018-02-17T20:16:35.623Z,18.43
2018-02-17T20:19:01.583Z,19.47
2018-02-17T20:21:27.559Z,18.20
2018-02-17T20:23:54.486Z,20.63
2018-02-17T20:26:20.497Z,23.90
2018-02-17T20:28:46.544Z,23.17
2018-02-17T20:31:12.576Z,27.67
2018-02-17T20:33:38.588Z,24.00
2018-02-17T20:36:04.601Z,23.83
2018-02-17T20:38:30.597Z,17.30
2018-02-17T20:40:56.572Z,19.80
2018-02-17T20:43:23.302Z,24.20
2018-02-17T20:45:49.304Z,22.27
2018-02-17T20:48:15.380Z,27.10
2018-02-17T20:50:42.194Z,27.97
2018-02-17T20:53:08.192Z,16.43
2018-02-17T20:55:34.907Z,29.20
2018-02-17T20:58:00.905Z,21.80
2018-02-17T21:00:26.893Z,21.43
2018-02-17T21:02:52.954Z,24.63
2018-02-17T21:05:18.927Z,19.13
2018-02-17T21:07:45.008Z,18.17
2018-02-17T21:10:11.087Z,20.57
2018-02-17T21:12:37.171Z,19.07
2018-02-17T21:15:03.156Z,24.03
2018-02-17T21:17:29.861Z,20.33
2018-02-17T21:19:56.582Z,32.43
2018-02-17T21:22:22.547Z,29.30
2018-02-17T21:24:48.582Z,24.37
2018-02-17T21:27:14.753Z,23.90
2018-02-17T21:29:41.533Z,28.60
2018-02-17T21:32:07.540Z,21.20
2018-02-17T21:34:34.230Z,20.87
2018-02-17T21:37:00.192Z,31.17
2018-02-17T21:39:26.884Z,26.90
2018-02-17T21:41:52.862Z,18.43
2018-02-17T21:44:18.843Z,16.80
2018-02-17T21:46:45.681Z,23.70
2018-02-17T21:49:11.762Z,20.67
2018-02-17T21:51:37.781Z,22.70
2018-02-17T21:54:03.754Z,19.50
2018-02-17T21:56:29.727Z,25.30
2018-02-17T21:58:55.700Z,21.63
2018-02-17T22:01:21.698Z,16.77
2018-02-17T22:03:47.734Z,22.80
2018-02-17T22:06:13.790Z,21.03
2018-02-17T22:08:40.592Z,16.83
2018-02-17T22:11:06.558Z,20.10
2018-02-17T22:13:32.529Z,24.33
2018-02-17T22:15:58.513Z,22.37
2018-02-17T22:18:24.490Z,26.73
2018-02-17T22:20:51.211Z,18.90
2018-02-17T22:23:17.249Z,24.53
2018-02-17T22:25:43.279Z,25.93
2018-02-17T22:28:09.244Z,22.83
2018-02-17T22:30:35.973Z,20.80
2018-02-17T22:33:01.940Z,23.90
2018-02-17T22:35:27.958Z,17.70
2018-02-17T22:37:53.939Z,23.30
2018-02-17T22:40:19.921Z,22.40
2018-02-17T22:42:46.008Z,19.00
2018-02-17T22:45:12.086Z,21.10
2018-02-17T22:47:38.062Z,23.40
2018-02-17T22:50:04.096Z,20.97
2018-02-17T22:52:30.144Z,17.30
2018-02-17T22:54:56.129Z,19.93
2018-02-17T22:57:22.122Z,22.53
2018-02-17T22:59:48.124Z,17.50
2018-02-17T23:02:14.860Z,23.77
2018-02-17T23:04:40.821Z,16.13
2018-02-17T23:07:06.946Z,23.37
2018-02-17T23:09:33.725Z,19.27
2018-02-17T23:11:59.710Z,14.63
2018-02-17T23:14:26.436Z,21.07
2018-02-17T23:16:52.408Z,21.57
2018-02-17T23:19:18.391Z,19.73
2018-02-17T23:21:44.406Z,18.10
2018-02-17T23:24:10.428Z,22.53
2018-02-17T23:26:37.191Z,15.63
2018-02-17T23:29:04.006Z,18.17
2018-02-17T23:31:30.018Z,22.07
2018-02-17T23:33:56.025Z,15.70
2018-02-17T23:36:22.031Z,24.33
2018-02-17T23:38:47.999Z,20.90
2018-02-17T23:41:13.978Z,22.57
2018-02-17T23:43:39.948Z,20.13
2018-02-17T23:46:06.729Z,20.77
2018-02-17T23:48:32.773Z,24.73
2018-02-17T23:50:58.769Z,15.87
2018-02-17T23:53:24.769Z,22.77
2018-02-17T23:55:50.771Z,24.73
2018-02-17T23:58:16.868Z,17.83
